Aérodrome :
LOGIN :

S'inscrire | Disclaimer

   EN    FR    IT 

 










Légende :    VFR   VFR Marginal   IFR   IFR Intensif   IFR Très Intensif
Visi : 
Plafond : 
>= 8 km
>= 3000ft
5 à 8 km
1000 à 3000 ft
1500m à 5 km
500 à 1000 ft
800 à 1500m
200 à 500 ft
< 800m
< 200 ft
Symboles :   Orages  Brouillard  Fortes neiges  Fortes précipitations  Vent > 20 kt
SIGMETs :   Divers  Orages  Givrage  Turbulence  Onde Orograph.  Cendres Volcan.







- Altitude de l'aérodrome : 162 ft
- Code IATA : BOD
- Voir les cartes d'approche


LFBD - Bordeaux / Merignac

DERNIER METAR :
  • 210230Z AUTO 12008KT CAVOK 20/16 Q1011 NOSIG

METARs EXPIRÉS :
  • 210200Z AUTO 12008KT CAVOK 20/16 Q1012 NOSIG
  • 210130Z AUTO 12009KT CAVOK 20/16 Q1012 NOSIG
  • 210100Z AUTO 12007KT CAVOK 21/16 Q1012 NOSIG
  • 210030Z AUTO 13007KT 9999 ///TCU 21/15 Q1012 BECMG NSC
  • 210000Z AUTO 13010KT CAVOK 21/16 Q1012 NOSIG

TAF TAF LFBD
Valide du 21 à 00h jusqu'au 22 à 06h UTC


202300Z 2100/2206 12012KT CAVOK TX30/2114Z TN18/2206Z
TEMPO 2113/2118 -SHRA BKN055TCU
PROB30
TEMPO 2115/2118 13015G25KT 4000 -TSRA BKN060CB
BECMG 2202/2204 18010KT 4500 -RA BKN030
BECMG 2204/2206 28015G25KT 2500 RA BKN014 BKN040
ATIS : +33 5 57 92 81 04
Pas de NOTAMs connus pour ce terrain.



MET'MAP, la Météo Aéronautique d'un coup d'oeil ! - Copyright ORBIFLY Décembre 2007 - Disclaimer

ORBIFLY MET'MAP TEAM :

Programmation & Développement : Alexandra Zaïnal
Conception & Développement : Baudouin d'Aumeries
Co-Programmation & Développement : Marc-Olivier Méhu
Soutien technique & logistique : Manuel Goepfert

Contact : metmap@orbifly.com




SOURCES & CREDITS :

   NOAA